createdAt,value
2022-12-05T00:00:00.287Z,5.1
2022-12-05T00:10:00.431Z,5.2
2022-12-05T00:20:00.619Z,5.2
2022-12-05T00:30:00.705Z,5.2
2022-12-05T00:40:00.535Z,5.1
2022-12-05T00:50:00.502Z,4.9
2022-12-05T01:00:00.327Z,4.9
2022-12-05T01:10:00.255Z,5.0
2022-12-05T01:20:00.485Z,4.9
2022-12-05T01:30:01.797Z,5.0
2022-12-05T01:40:00.539Z,4.7
2022-12-05T01:50:00.899Z,4.8
2022-12-05T02:00:00.717Z,4.7
2022-12-05T02:10:00.763Z,4.7
2022-12-05T02:20:00.757Z,4.4
2022-12-05T02:30:00.900Z,4.6
2022-12-05T02:40:00.861Z,4.5
2022-12-05T02:50:00.645Z,4.6
2022-12-05T03:00:00.698Z,4.6
2022-12-05T03:10:00.606Z,4.5
2022-12-05T03:20:00.744Z,4.5
2022-12-05T03:30:00.640Z,4.6
2022-12-05T03:40:00.399Z,4.6
2022-12-05T03:50:00.528Z,4.4
2022-12-05T04:00:00.677Z,4.1
2022-12-05T04:10:00.723Z,4.2
2022-12-05T04:20:00.463Z,4.2
2022-12-05T04:30:00.744Z,4.1
2022-12-05T04:40:00.700Z,4.2
2022-12-05T04:50:00.605Z,4.0
2022-12-05T05:00:00.863Z,4.0
2022-12-05T05:10:00.546Z,3.9
2022-12-05T05:20:00.477Z,4.1
2022-12-05T05:30:00.471Z,4.0
2022-12-05T05:40:03.829Z,4.0
2022-12-05T05:50:00.693Z,4.1
2022-12-05T06:00:00.684Z,4.5
2022-12-05T06:10:00.724Z,4.5
2022-12-05T06:20:00.655Z,4.6
2022-12-05T06:30:00.885Z,4.5
2022-12-05T06:40:00.957Z,4.5
2022-12-05T06:50:01.509Z,4.8
2022-12-05T07:00:00.424Z,4.6
2022-12-05T07:10:00.660Z,4.6
2022-12-05T07:20:00.701Z,4.6
2022-12-05T07:30:00.464Z,4.7
2022-12-05T07:40:00.746Z,5.0
2022-12-05T07:50:00.589Z,4.8
2022-12-05T08:00:00.558Z,4.8
2022-12-05T08:10:00.602Z,4.9
2022-12-05T08:20:00.490Z,4.7
2022-12-05T08:30:00.551Z,5.1
2022-12-05T08:40:00.577Z,4.9
2022-12-05T08:50:00.723Z,5.2
2022-12-05T09:00:00.274Z,5.3
2022-12-05T09:10:00.240Z,5.2
2022-12-05T09:20:00.274Z,5.4
2022-12-05T09:30:00.507Z,5.2
2022-12-05T09:40:00.669Z,5.7
2022-12-05T09:50:00.769Z,5.7
2022-12-05T10:00:00.642Z,5.4
2022-12-05T10:10:00.745Z,5.6
2022-12-05T10:20:00.590Z,5.9
2022-12-05T10:30:00.739Z,6.3
2022-12-05T10:40:01.216Z,5.7
2022-12-05T10:50:00.309Z,5.9
2022-12-05T11:00:00.280Z,5.6
2022-12-05T11:10:00.249Z,5.8
2022-12-05T11:20:00.276Z,5.7
2022-12-05T11:30:00.238Z,5.6
2022-12-05T11:40:00.231Z,5.7
2022-12-05T11:50:00.265Z,5.7
2022-12-05T12:00:00.618Z,5.6
2022-12-05T12:10:00.318Z,5.5
2022-12-05T12:20:00.203Z,5.9
2022-12-05T12:30:00.276Z,6.0
2022-12-05T12:40:00.269Z,6.0
2022-12-05T12:50:00.240Z,5.8
2022-12-05T13:10:00.291Z,5.2
2022-12-05T13:20:00.238Z,5.2
2022-12-05T13:30:01.016Z,5.2
2022-12-05T13:40:00.653Z,5.4
2022-12-05T13:50:00.846Z,5.4
2022-12-05T14:00:01.280Z,5.5
2022-12-05T14:10:00.911Z,5.2
2022-12-05T14:20:00.933Z,5.3
2022-12-05T14:30:00.869Z,5.3
2022-12-05T14:40:00.729Z,5.2
2022-12-05T14:50:00.390Z,5.5
2022-12-05T15:00:00.551Z,5.7
2022-12-05T15:10:00.685Z,5.8
2022-12-05T15:20:00.751Z,5.7
2022-12-05T15:30:00.232Z,5.5
2022-12-05T15:40:00.267Z,5.9
2022-12-05T15:50:00.526Z,6.0
2022-12-05T16:00:00.834Z,6.0
2022-12-05T17:08:33.928Z,6.1
2022-12-05T17:10:00.218Z,6.2
2022-12-05T17:20:00.723Z,6.2
2022-12-05T17:30:00.843Z,6.0
2022-12-05T17:40:00.826Z,6.0
2022-12-05T17:50:00.883Z,6.2
2022-12-05T18:00:00.434Z,6.2
2022-12-05T18:10:00.259Z,6.2
2022-12-05T18:20:00.257Z,6.1
2022-12-05T18:30:00.258Z,6.3
2022-12-05T18:40:00.262Z,6.2
2022-12-05T18:50:00.223Z,6.5
2022-12-05T19:00:00.317Z,6.3
2022-12-05T19:10:00.262Z,6.4
2022-12-05T19:20:00.224Z,6.4
2022-12-05T19:30:03.813Z,6.4
2022-12-05T19:40:00.517Z,6.4
2022-12-05T19:50:00.567Z,6.3
2022-12-05T20:00:00.725Z,6.2
2022-12-05T20:10:00.662Z,6.4
2022-12-05T20:20:00.534Z,6.1
2022-12-05T20:30:00.694Z,6.3
2022-12-05T20:40:00.599Z,6.3
2022-12-05T20:50:00.887Z,6.4
2022-12-05T21:00:01.299Z,6.4
2022-12-05T21:10:06.372Z,6.4
2022-12-05T21:20:00.884Z,6.5
2022-12-05T21:30:01.123Z,6.5
2022-12-05T21:40:01.085Z,6.6
2022-12-05T21:50:00.918Z,6.4
2022-12-05T22:00:00.832Z,6.6
2022-12-05T22:10:00.640Z,6.7
2022-12-05T22:20:00.689Z,6.7
2022-12-05T22:30:00.524Z,6.6
2022-12-05T22:40:00.531Z,6.5
2022-12-05T22:50:00.497Z,6.6
2022-12-05T23:00:00.583Z,6.6
2022-12-05T23:10:00.653Z,6.5
2022-12-05T23:20:00.513Z,6.4
2022-12-05T23:30:00.699Z,6.3
2022-12-05T23:40:00.649Z,6.4
2022-12-05T23:50:00.407Z,6.3
